Time;durP1;ratioP1;P1;durP2;ratioP2;P2;SDS_P1;SDS_P2;PMS_P1;PMS_P2;Temp;Humidity;BMP_temperature;BMP_pressure;BME280_temperature;BME280_humidity;BME280_pressure;Samples;Min_cycle;Max_cycle;Signal;HPM_P1;HPM_P2
2023/08/12 00:00:13;;;;;;;5.28;2.88;;;409.60;2355.20;;;;;;4991509;28;20053;-62
2023/08/12 00:02:44;;;;;;;4.68;2.95;;;409.60;2355.20;;;;;;4991678;28;20030;-62
2023/08/12 00:05:11;;;;;;;6.85;3.40;;;409.90;2355.20;;;;;;4991350;28;20054;-61
2023/08/12 00:07:37;;;;;;;4.15;3.03;;;409.60;2355.20;;;;;;4991842;28;20026;-62
2023/08/12 00:10:04;;;;;;;3.85;2.90;;;409.80;2355.20;;;;;;4991306;28;20053;-62
2023/08/12 00:12:31;;;;;;;5.22;3.92;;;409.80;2355.20;;;;;;4991444;28;20042;-62
2023/08/12 00:14:57;;;;;;;5.63;3.55;;;410.00;2355.20;;;;;;4991160;28;20089;-61
2023/08/12 00:17:23;;;;;;;4.95;2.80;;;409.70;2355.20;;;;;;4991127;28;20022;-62
2023/08/12 00:19:49;;;;;;;5.80;3.25;;;409.70;2355.20;;;;;;4991089;28;20092;-62
2023/08/12 00:22:14;;;;;;;4.43;2.83;;;409.90;2355.20;;;;;;4991215;28;20037;-61
2023/08/12 00:24:40;;;;;;;4.90;2.92;;;409.90;2355.20;;;;;;4991311;28;20024;-62
2023/08/12 00:27:06;;;;;;;4.30;3.10;;;410.00;2355.20;;;;;;4991162;28;20376;-62
2023/08/12 00:29:34;;;;;;;4.35;3.33;;;409.90;2355.20;;;;;;4991202;28;20036;-62
2023/08/12 00:32:00;;;;;;;4.72;3.58;;;409.80;2355.20;;;;;;4990871;28;20034;-60
2023/08/12 00:34:25;;;;;;;4.97;3.47;;;409.80;2355.20;;;;;;4973018;28;20034;-62
2023/08/12 00:36:51;;;;;;;6.28;3.50;;;409.70;2355.20;;;;;;4991187;28;20484;-61
2023/08/12 00:39:17;;;;;;;6.05;3.55;;;409.60;2355.20;;;;;;4990682;28;20030;-61
2023/08/12 00:41:42;;;;;;;6.10;3.80;;;409.60;2355.20;;;;;;4990717;28;20038;-62
2023/08/12 00:44:08;;;;;;;7.18;3.40;;;409.60;2355.20;;;;;;4991016;28;20070;-62
2023/08/12 00:46:36;;;;;;;5.40;3.05;;;409.60;2355.20;;;;;;4990536;28;20037;-62
2023/08/12 00:49:02;;;;;;;3.67;2.75;;;409.60;2355.20;;;;;;4990450;28;20018;-62
2023/08/12 00:51:27;;;;;;;5.25;3.65;;;384.80;2329.60;;;;;;4990598;28;20370;-62
2023/08/12 00:53:56;;;;;;;5.13;3.53;;;384.70;2329.60;;;;;;4990520;28;20025;-62
2023/08/12 00:56:22;;;;;;;7.40;3.45;;;384.70;2329.60;;;;;;4990802;28;20076;-62
2023/08/12 00:58:48;;;;;;;4.38;3.83;;;384.90;2329.60;;;;;;4989712;28;20463;-62
2023/08/12 01:01:14;;;;;;;5.10;3.15;;;384.90;2329.60;;;;;;4977545;28;20026;-62
2023/08/12 01:03:41;;;;;;;3.40;2.33;;;409.60;2355.20;;;;;;4990060;28;20380;-62
2023/08/12 01:06:07;;;;;;;6.50;3.17;;;409.80;2355.20;;;;;;4990414;28;20014;-61
2023/08/12 01:08:35;;;;;;;3.40;2.60;;;409.90;2355.20;;;;;;4990151;28;20045;-62
2023/08/12 01:11:26;;;;;;;4.70;3.13;;;409.90;2355.20;;;;;;4990109;28;20073;-61
2023/08/12 01:14:00;;;;;;;4.57;3.00;;;410.00;2355.20;;;;;;4989915;28;20082;-62
2023/08/12 01:16:30;;;;;;;4.97;3.00;;;410.10;2355.20;;;;;;4989831;28;20030;-63
2023/08/12 01:18:57;;;;;;;4.82;2.63;;;410.00;2355.20;;;;;;4989979;28;20029;-61
2023/08/12 01:21:24;;;;;;;5.03;3.10;;;410.00;2355.20;;;;;;4990351;28;20027;-61
2023/08/12 01:23:50;;;;;;;6.13;2.95;;;409.90;2355.20;;;;;;4989750;28;20033;-61
2023/08/12 01:26:16;;;;;;;5.90;3.35;;;409.70;2355.20;;;;;;4989951;28;20030;-61
2023/08/12 01:28:42;;;;;;;4.22;3.13;;;409.60;2355.20;;;;;;4990027;28;20161;-61
2023/08/12 01:31:26;;;;;;;5.75;3.67;;;384.80;2329.60;;;;;;4990082;28;20070;-61
2023/08/12 01:33:58;;;;;;;8.23;3.55;;;384.70;2329.60;;;;;;4978153;28;20026;-62
2023/08/12 01:36:26;;;;;;;5.18;3.15;;;384.50;2329.60;;;;;;4989888;28;20018;-62
2023/08/12 01:38:56;;;;;;;6.15;3.38;;;384.40;2329.60;;;;;;4990133;28;20030;-61
2023/08/12 01:41:23;;;;;;;5.60;3.42;;;384.30;2329.60;;;;;;4989626;28;20400;-61
2023/08/12 01:43:49;;;;;;;4.95;3.13;;;384.20;2329.60;;;;;;4990210;28;20093;-61
2023/08/12 01:46:16;;;;;;;6.10;3.47;;;384.20;2329.60;;;;;;4989501;28;20057;-61
2023/08/12 01:48:42;;;;;;;3.83;2.88;;;384.20;2329.60;;;;;;4989957;28;20030;-62
2023/08/12 01:51:08;;;;;;;4.25;3.55;;;384.10;2329.60;;;;;;4989982;28;20112;-61
2023/08/12 01:53:33;;;;;;;4.80;3.05;;;384.10;2329.60;;;;;;4989779;28;20022;-62
2023/08/12 01:55:59;;;;;;;6.13;3.03;;;384.10;2329.60;;;;;;4990164;28;20118;-61
2023/08/12 01:58:26;;;;;;;4.03;3.17;;;384.20;2329.60;;;;;;4989527;28;20044;-61
2023/08/12 02:00:52;;;;;;;7.20;3.55;;;384.30;2329.60;;;;;;4989983;28;20038;-61
2023/08/12 02:03:18;;;;;;;4.30;3.10;;;384.40;2329.60;;;;;;4989474;28;20476;-61
2023/08/12 02:05:44;;;;;;;5.20;3.13;;;384.40;2329.60;;;;;;4989272;28;20084;-62
2023/08/12 02:08:10;;;;;;;10.68;4.00;;;384.40;2329.60;;;;;;4989912;28;20022;-61
2023/08/12 02:10:35;;;;;;;6.32;3.30;;;384.40;2329.60;;;;;;4989343;28;20042;-62
2023/08/12 02:13:02;;;;;;;5.88;3.60;;;384.40;2329.60;;;;;;4989597;28;20448;-61
2023/08/12 02:15:28;;;;;;;6.72;3.80;;;384.40;2329.60;;;;;;4989639;28;20098;-62
2023/08/12 02:17:54;;;;;;;6.90;3.28;;;384.40;2329.60;;;;;;4989455;28;20554;-62
2023/08/12 02:20:20;;;;;;;4.90;3.10;;;384.40;2329.60;;;;;;4989604;28;20033;-62
2023/08/12 02:22:45;;;;;;;4.65;3.30;;;384.40;2329.60;;;;;;4993284;28;20046;-62
2023/08/12 02:25:11;;;;;;;4.68;3.33;;;384.50;2329.60;;;;;;4993362;28;20080;-62
2023/08/12 02:27:37;;;;;;;4.75;2.90;;;384.50;2329.60;;;;;;4993368;28;20070;-62
2023/08/12 02:30:04;;;;;;;3.92;3.13;;;384.40;2329.60;;;;;;4993268;28;20038;-61
2023/08/12 02:32:29;;;;;;;4.97;3.65;;;384.40;2329.60;;;;;;4993319;28;20038;-62
2023/08/12 02:34:55;;;;;;;5.88;3.03;;;384.40;2329.60;;;;;;4992917;28;20080;-61
2023/08/12 02:37:21;;;;;;;5.63;3.75;;;384.30;2329.60;;;;;;4993463;28;20041;-61
2023/08/12 02:39:47;;;;;;;4.63;3.45;;;384.10;2329.60;;;;;;4992771;28;20128;-62
2023/08/12 02:42:13;;;;;;;4.95;3.40;;;384.10;2329.60;;;;;;4993001;28;20386;-62
2023/08/12 02:44:39;;;;;;;5.88;3.63;;;384.10;2329.60;;;;;;4993101;28;20026;-62
2023/08/12 02:47:04;;;;;;;5.72;3.60;;;384.10;2329.60;;;;;;4992986;28;20201;-62
2023/08/12 02:49:30;;;;;;;6.75;3.88;;;384.00;2329.60;;;;;;4993041;28;20037;-62
2023/08/12 02:51:56;;;;;;;4.95;2.75;;;384.10;2329.60;;;;;;4992750;28;20503;-62
2023/08/12 02:54:21;;;;;;;5.70;3.72;;;384.10;2329.60;;;;;;4992844;28;20023;-62
2023/08/12 02:56:47;;;;;;;6.90;3.60;;;384.10;2329.60;;;;;;4992801;28;20030;-61
2023/08/12 02:59:13;;;;;;;8.10;3.70;;;384.10;2329.60;;;;;;4992220;28;20034;-63
2023/08/12 03:01:41;;;;;;;4.38;2.80;;;384.10;2329.60;;;;;;4992810;28;20370;-61
2023/08/12 03:04:07;;;;;;;6.70;3.00;;;384.20;2329.60;;;;;;4992417;28;20019;-61
2023/08/12 03:06:33;;;;;;;5.05;3.42;;;384.20;2329.60;;;;;;4990250;28;20077;-61
2023/08/12 03:08:58;;;;;;;4.80;3.42;;;384.20;2329.60;;;;;;4992447;28;20073;-61
2023/08/12 03:11:24;;;;;;;4.47;3.15;;;384.20;2329.60;;;;;;4992264;28;20027;-61
2023/08/12 03:13:50;;;;;;;4.40;3.03;;;384.20;2329.60;;;;;;4992156;28;20551;-61
2023/08/12 03:16:16;;;;;;;6.53;3.28;;;384.30;2329.60;;;;;;4992370;28;20031;-62
2023/08/12 03:18:41;;;;;;;4.65;3.00;;;384.30;2329.60;;;;;;4992394;28;20027;-62
2023/08/12 03:21:08;;;;;;;5.82;2.85;;;384.30;2329.60;;;;;;4982783;28;20086;-62
2023/08/12 03:23:36;;;;;;;4.80;3.17;;;384.40;2329.60;;;;;;4988655;28;20080;-62
2023/08/12 03:26:03;;;;;;;4.68;3.25;;;384.20;2329.60;;;;;;4992208;28;20026;-61
2023/08/12 03:28:29;;;;;;;5.63;3.22;;;384.10;2329.60;;;;;;4992123;28;20041;-61
2023/08/12 03:30:54;;;;;;;5.93;3.30;;;384.10;2329.60;;;;;;4991917;28;20034;-61
2023/08/12 03:33:20;;;;;;;6.38;3.63;;;384.20;2329.60;;;;;;4991559;28;20078;-61
2023/08/12 03:35:47;;;;;;;5.30;3.53;;;384.10;2329.60;;;;;;4991829;28;20026;-61
2023/08/12 03:38:13;;;;;;;5.28;3.35;;;384.00;2329.60;;;;;;4991884;28;20029;-62
2023/08/12 03:40:39;;;;;;;6.43;3.20;;;384.00;2329.60;;;;;;4992099;28;20082;-62
2023/08/12 03:43:05;;;;;;;4.25;2.95;;;359.20;2329.60;;;;;;4991852;28;20018;-62
2023/08/12 03:45:31;;;;;;;5.55;3.60;;;359.20;2329.60;;;;;;4991832;28;20110;-62
2023/08/12 03:47:56;;;;;;;7.13;3.13;;;359.30;2329.60;;;;;;4991613;28;20030;-62
2023/08/12 03:50:22;;;;;;;13.75;3.42;;;359.30;2329.60;;;;;;4991633;28;20042;-61
2023/08/12 03:52:48;;;;;;;5.47;3.83;;;384.00;2329.60;;;;;;4974137;28;20116;-62
2023/08/12 03:55:13;;;;;;;5.43;3.75;;;384.00;2329.60;;;;;;4991735;28;20023;-62
2023/08/12 03:57:39;;;;;;;6.43;3.38;;;384.10;2329.60;;;;;;4991648;28;20062;-61
2023/08/12 04:00:08;;;;;;;5.00;3.63;;;384.20;2329.60;;;;;;4991556;28;20030;-62
2023/08/12 04:02:34;;;;;;;4.65;3.58;;;384.30;2329.60;;;;;;4974425;28;20073;-62
2023/08/12 04:05:00;;;;;;;4.63;3.78;;;384.20;2329.60;;;;;;4991064;28;20053;-62
2023/08/12 04:07:26;;;;;;;5.45;3.67;;;384.20;2329.60;;;;;;4991494;28;20072;-62
2023/08/12 04:09:52;;;;;;;6.70;3.10;;;384.20;2329.60;;;;;;4991457;28;20495;-61
2023/08/12 04:12:18;;;;;;;7.07;3.53;;;384.30;2329.60;;;;;;4991159;28;20059;-62
2023/08/12 04:14:44;;;;;;;4.82;3.45;;;384.50;2329.60;;;;;;4990960;28;20027;-62
2023/08/12 04:17:09;;;;;;;5.05;3.30;;;384.40;2329.60;;;;;;4991155;28;20370;-61
2023/08/12 04:19:35;;;;;;;4.03;3.10;;;384.40;2329.60;;;;;;4991133;28;20069;-62
2023/08/12 04:22:01;;;;;;;6.47;3.70;;;384.60;2329.60;;;;;;4991202;28;20080;-62
2023/08/12 04:24:26;;;;;;;6.18;3.63;;;384.70;2329.60;;;;;;4991150;28;20060;-62
2023/08/12 04:26:52;;;;;;;5.60;4.50;;;384.50;2329.60;;;;;;4991141;28;20026;-62
2023/08/12 04:29:18;;;;;;;7.10;3.72;;;384.80;2329.60;;;;;;4991035;28;20485;-60
2023/08/12 04:31:43;;;;;;;6.82;3.67;;;384.70;2329.60;;;;;;4990679;28;20048;-61
2023/08/12 04:34:09;;;;;;;6.55;4.18;;;384.70;2329.60;;;;;;4991179;28;20031;-60
2023/08/12 04:36:35;;;;;;;4.65;3.55;;;384.70;2329.60;;;;;;4990650;28;20389;-61
2023/08/12 04:39:01;;;;;;;6.63;3.92;;;384.80;2329.60;;;;;;4990629;28;20038;-60
2023/08/12 04:41:26;;;;;;;8.98;4.43;;;409.60;2355.20;;;;;;4990776;28;20374;-61
2023/08/12 04:43:52;;;;;;;5.57;3.70;;;409.90;2355.20;;;;;;4990274;28;20527;-61
2023/08/12 04:46:18;;;;;;;6.30;3.83;;;410.00;2355.20;;;;;;4990002;28;20038;-61
2023/08/12 04:48:43;;;;;;;4.97;3.78;;;410.20;2355.20;;;;;;4990823;28;20369;-61
2023/08/12 04:51:10;;;;;;;6.70;3.88;;;410.40;2355.20;;;;;;4990732;28;20073;-60
2023/08/12 04:53:35;;;;;;;5.25;3.47;;;410.50;2355.20;;;;;;4990373;28;20034;-61
2023/08/12 04:56:01;;;;;;;6.03;4.43;;;435.60;2355.20;;;;;;4990277;28;20097;-61
2023/08/12 04:58:27;;;;;;;5.10;3.63;;;538.20;2406.40;;;;;;4990047;28;20088;-61
2023/08/12 05:00:53;;;;;;;6.55;4.22;;;614.70;2201.60;;;;;;4990291;28;20524;-62
2023/08/12 05:03:18;;;;;;;4.63;3.53;;;666.30;1894.40;;;;;;4990012;28;20057;-61
2023/08/12 05:05:51;;;;;;;4.47;3.13;;;742.60;1740.80;;;;;;4989919;28;20647;-61
2023/08/12 05:08:17;;;;;;;6.03;3.25;;;793.70;1587.20;;;;;;4990149;28;20559;-61
2023/08/12 05:10:43;;;;;;;5.43;3.55;;;768.90;1561.60;;;;;;4990330;28;20038;-62
2023/08/12 05:13:09;;;;;;;4.70;3.53;;;793.70;1561.60;;;;;;4990274;28;20400;-62
2023/08/12 05:15:36;;;;;;;4.45;3.53;;;794.50;1484.80;;;;;;4990207;28;20496;-64
2023/08/12 05:18:02;;;;;;;4.10;3.20;;;819.70;1433.60;;;;;;4990010;28;20030;-63
2023/08/12 05:20:28;;;;;;;4.78;4.28;;;819.70;1433.60;;;;;;4989779;28;20019;-63
2023/08/12 05:22:54;;;;;;;5.72;4.68;;;794.50;1459.20;;;;;;4989832;28;20037;-62
2023/08/12 05:25:19;;;;;;;6.68;4.57;;;794.20;1484.80;;;;;;4989934;28;20025;-62
2023/08/12 05:27:45;;;;;;;9.35;4.57;;;794.20;1484.80;;;;;;4989933;28;20109;-63
2023/08/12 05:30:11;;;;;;;5.00;4.50;;;819.80;1433.60;;;;;;4989831;28;20045;-63
2023/08/12 05:32:37;;;;;;;6.72;4.63;;;870.90;1356.80;;;;;;4989605;28;20042;-63
2023/08/12 05:35:03;;;;;;;8.18;4.47;;;871.20;1331.20;;;;;;4973256;28;20026;-64
2023/08/12 05:37:29;;;;;;;6.13;5.18;;;870.50;1356.80;;;;;;4970496;28;20030;-62
2023/08/12 05:39:54;;;;;;;5.43;4.55;;;844.80;1408.00;;;;;;4970067;28;20027;-62
2023/08/12 05:42:20;;;;;;;5.75;5.15;;;896.00;1305.60;;;;;;4980344;28;20037;-63
2023/08/12 05:44:45;;;;;;;6.15;5.05;;;896.80;1280.00;;;;;;4989555;28;20036;-62
2023/08/12 05:47:11;;;;;;;7.28;5.75;;;921.80;1254.40;;;;;;4971896;28;20031;-63
2023/08/12 05:49:37;;;;;;;6.70;6.00;;;896.90;1254.40;;;;;;4989825;28;20500;-64
2023/08/12 05:52:03;;;;;;;6.05;5.20;;;896.80;1254.40;;;;;;4989441;28;20118;-63
2023/08/12 05:54:28;;;;;;;10.30;5.75;;;896.40;1254.40;;;;;;4989728;28;20023;-63
2023/08/12 05:56:55;;;;;;;11.43;6.63;;;922.30;1254.40;;;;;;4989497;28;20033;-62
2023/08/12 05:59:21;;;;;;;11.07;7.03;;;947.60;1203.20;;;;;;4976605;28;20022;-61
2023/08/12 06:01:47;;;;;;;7.80;6.18;;;973.70;1152.00;;;;;;4978999;28;20039;-63
2023/08/12 06:04:13;;;;;;;8.50;6.03;;;973.70;1177.60;;;;;;4982390;28;20072;-63
2023/08/12 06:06:38;;;;;;;9.88;7.00;;;999.00;1152.00;;;;;;4991944;28;20121;-64
2023/08/12 06:09:04;;;;;;;8.05;5.68;;;1024.10;1126.40;;;;;;4980247;28;20031;-62
2023/08/12 06:11:30;;;;;;;6.80;6.20;;;1024.40;1100.80;;;;;;4976449;28;20047;-63
2023/08/12 06:13:56;;;;;;;7.13;6.53;;;1049.70;1100.80;;;;;;4991828;28;20054;-64
2023/08/12 06:16:21;;;;;;;7.15;6.35;;;1050.20;1075.20;;;;;;4996143;28;20034;-63
2023/08/12 06:18:47;;;;;;;6.95;6.25;;;1050.30;1075.20;;;;;;4995447;28;20035;-62
2023/08/12 06:21:13;;;;;;;8.15;6.10;;;1050.50;1075.20;;;;;;4995679;28;20030;-62
2023/08/12 06:23:39;;;;;;;6.97;6.35;;;1075.60;1049.60;;;;;;4996024;28;20030;-62
2023/08/12 06:26:04;;;;;;;6.75;6.15;;;1101.20;1024.00;;;;;;4995797;28;20010;-63
2023/08/12 06:28:30;;;;;;;7.13;6.53;;;1101.40;1024.00;;;;;;4995890;28;20045;-62
2023/08/12 06:30:56;;;;;;;7.30;6.60;;;1126.80;1024.00;;;;;;4995825;28;20026;-63
2023/08/12 06:33:21;;;;;;;7.40;6.80;;;1101.20;1049.60;;;;;;4995484;28;20481;-61
2023/08/12 06:35:47;;;;;;;7.22;6.63;;;1101.30;1049.60;;;;;;4995509;28;20030;-63
2023/08/12 06:38:13;;;;;;;7.68;6.60;;;1101.60;998.40;;;;;;4995665;28;20029;-63
2023/08/12 06:40:39;;;;;;;7.43;6.82;;;1152.40;998.40;;;;;;4995940;28;20072;-62
2023/08/12 06:43:07;;;;;;;7.70;7.18;;;1127.10;998.40;;;;;;4995456;28;20041;-64
2023/08/12 06:45:34;;;;;;;7.28;6.57;;;1152.60;972.80;;;;;;4995793;28;20544;-62
2023/08/12 06:48:02;;;;;;;7.60;6.90;;;1177.80;947.20;;;;;;4995481;28;20046;-63
2023/08/12 06:50:27;;;;;;;7.72;7.22;;;1178.30;921.60;;;;;;4995577;28;20462;-62
2023/08/12 06:52:53;;;;;;;8.27;7.57;;;1152.70;947.20;;;;;;4995289;28;20081;-63
2023/08/12 06:55:19;;;;;;;8.25;7.55;;;1127.00;972.80;;;;;;4995450;28;20022;-62
2023/08/12 06:57:45;;;;;;;7.90;7.32;;;1152.00;972.80;;;;;;4995592;28;20026;-63
2023/08/12 07:00:11;;;;;;;7.95;7.35;;;1126.70;972.80;;;;;;4995533;28;20424;-63
2023/08/12 07:02:37;;;;;;;8.05;7.40;;;1177.80;921.60;;;;;;4995222;28;20030;-64
2023/08/12 07:05:03;;;;;;;7.25;6.68;;;1178.00;896.00;;;;;;4995046;28;20019;-64
2023/08/12 07:07:28;;;;;;;8.48;7.80;;;1152.70;921.60;;;;;;4993096;28;20022;-63
2023/08/12 07:09:54;;;;;;;7.15;6.68;;;1177.80;896.00;;;;;;4992391;28;20030;-64
2023/08/12 07:12:20;;;;;;;8.80;8.05;;;1152.90;921.60;;;;;;4992034;28;20501;-62
2023/08/12 07:14:46;;;;;;;8.45;7.65;;;1152.70;921.60;;;;;;4992172;28;20062;-62
2023/08/12 07:17:11;;;;;;;8.73;8.10;;;1178.00;921.60;;;;;;4992138;28;20033;-64
2023/08/12 07:19:37;;;;;;;9.82;8.60;;;1152.60;947.20;;;;;;4992139;28;20077;-64
2023/08/12 07:22:03;;;;;;;9.02;8.32;;;1177.80;921.60;;;;;;4991943;28;20026;-64
2023/08/12 07:24:28;;;;;;;8.93;8.25;;;1178.00;921.60;;;;;;4992353;28;20465;-62
2023/08/12 07:26:55;;;;;;;9.27;7.78;;;1203.60;896.00;;;;;;4992154;28;20030;-64
2023/08/12 07:29:21;;;;;;;9.23;8.63;;;1204.10;870.40;;;;;;4992129;28;20018;-63
2023/08/12 07:31:46;;;;;;;9.25;8.65;;;1229.50;844.80;;;;;;4991586;28;20037;-62
2023/08/12 07:34:13;;;;;;;9.90;9.20;;;1229.30;870.40;;;;;;4992263;28;20501;-61
2023/08/12 07:36:40;;;;;;;9.30;8.55;;;1229.20;870.40;;;;;;4991984;28;20029;-62
2023/08/12 07:39:06;;;;;;;10.40;9.70;;;1229.20;870.40;;;;;;4991688;28;20044;-63
2023/08/12 07:41:32;;;;;;;10.00;9.20;;;1203.70;870.40;;;;;;4991837;28;20026;-63
2023/08/12 07:43:57;;;;;;;10.40;9.60;;;1178.30;870.40;;;;;;4991635;28;20106;-63
2023/08/12 07:46:23;;;;;;;10.63;9.90;;;1203.80;844.80;;;;;;4991518;28;20019;-64
2023/08/12 07:48:49;;;;;;;10.23;9.38;;;1152.50;921.60;;;;;;4991775;28;20038;-64
2023/08/12 07:51:15;;;;;;;10.48;9.57;;;1178.50;870.40;;;;;;4991255;28;20033;-64
2023/08/12 07:53:40;;;;;;;10.52;9.82;;;1203.40;896.00;;;;;;4992322;28;20041;-65
2023/08/12 07:56:08;;;;;;;10.27;9.40;;;1152.70;921.60;;;;;;4991849;28;20097;-64
2023/08/12 07:58:34;;;;;;;11.52;10.57;;;1177.70;947.20;;;;;;4991547;28;20117;-63
2023/08/12 08:00:59;;;;;;;11.82;10.80;;;1178.20;896.00;;;;;;4991585;28;20109;-64
2023/08/12 08:03:25;;;;;;;10.90;9.80;;;1203.70;896.00;;;;;;4981424;28;20465;-63
2023/08/12 08:05:52;;;;;;;11.00;10.05;;;1178.00;896.00;;;;;;4988310;28;20018;-64
2023/08/12 08:08:18;;;;;;;10.48;9.77;;;1177.80;896.00;;;;;;4991620;28;20030;-64
2023/08/12 08:10:44;;;;;;;10.93;10.23;;;1203.40;896.00;;;;;;4990960;28;20377;-64
2023/08/12 08:13:09;;;;;;;11.48;10.77;;;1228.90;921.60;;;;;;4991504;28;20080;-63
2023/08/12 08:15:35;;;;;;;11.10;10.27;;;1178.20;896.00;;;;;;4991145;28;20156;-62
2023/08/12 08:18:03;;;;;;;12.02;11.05;;;1203.30;921.60;;;;;;4991259;28;20532;-62
2023/08/12 08:20:29;;;;;;;11.40;10.48;;;1178.10;921.60;;;;;;4990831;28;20023;-63
2023/08/12 08:22:55;;;;;;;10.90;10.10;;;1203.40;921.60;;;;;;4973426;28;20030;-63
2023/08/12 08:25:21;;;;;;;10.60;9.80;;;1178.50;896.00;;;;;;4990959;28;20025;-63
2023/08/12 08:27:47;;;;;;;10.95;10.15;;;1152.20;972.80;;;;;;4990954;28;20030;-64
2023/08/12 08:30:13;;;;;;;10.35;9.50;;;1127.30;998.40;;;;;;4990886;28;20033;-63
2023/08/12 08:32:38;;;;;;;10.43;9.60;;;1152.50;972.80;;;;;;4991068;28;20429;-62
2023/08/12 08:35:04;;;;;;;9.95;9.35;;;1101.00;998.40;;;;;;4990464;28;20037;-63
2023/08/12 08:37:30;;;;;;;9.15;8.55;;;1075.20;998.40;;;;;;4990860;28;20489;-62
2023/08/12 08:39:56;;;;;;;7.93;7.05;;;1024.40;1049.60;;;;;;4990423;28;20022;-62
2023/08/12 08:42:23;;;;;;;7.13;6.53;;;973.20;1126.40;;;;;;4990875;28;20477;-63
2023/08/12 08:44:52;;;;;;;8.07;5.32;;;947.40;1177.60;;;;;;4990502;28;20027;-63
2023/08/12 08:47:20;;;;;;;5.97;5.05;;;;;;;;;;4990388;28;20113;-63
2023/08/12 08:49:46;;;;;;;5.57;5.07;;;921.80;1203.20;;;;;;4990237;28;20465;-63
2023/08/12 08:52:12;;;;;;;5.72;5.18;;;870.60;1254.40;;;;;;4990503;28;20042;-63
2023/08/12 08:54:39;;;;;;;6.32;5.45;;;870.70;1254.40;;;;;;4990415;28;20033;-63
2023/08/12 08:57:05;;;;;;;6.18;5.57;;;845.50;1280.00;;;;;;4990546;28;20062;-63
2023/08/12 08:59:31;;;;;;;6.38;5.18;;;845.40;1280.00;;;;;;4990441;28;20487;-63
2023/08/12 09:01:58;;;;;;;6.55;5.43;;;819.80;1305.60;;;;;;4990119;28;20034;-63
2023/08/12 09:04:25;;;;;;;6.45;5.50;;;819.40;1331.20;;;;;;4989982;28;20014;-63
2023/08/12 09:06:52;;;;;;;6.13;5.15;;;819.60;1331.20;;;;;;4990158;28;20031;-63
2023/08/12 09:09:20;;;;;;;6.70;4.78;;;794.50;1331.20;;;;;;4990113;28;20473;-62
2023/08/12 09:11:46;;;;;;;6.07;5.13;;;794.50;1382.40;;;;;;4989720;28;20129;-63
2023/08/12 09:14:13;;;;;;;6.18;4.78;;;819.30;1382.40;;;;;;4990243;28;20036;-63
2023/08/12 09:16:39;;;;;;;5.68;5.15;;;819.60;1356.80;;;;;;4973277;28;20038;-63
2023/08/12 09:19:05;;;;;;;5.15;4.65;;;820.00;1331.20;;;;;;4989398;28;20034;-63
2023/08/12 09:21:30;;;;;;;6.43;4.57;;;819.60;1356.80;;;;;;4990318;28;20553;-62
2023/08/12 09:23:56;;;;;;;6.30;4.82;;;819.60;1356.80;;;;;;4989619;28;20366;-64
2023/08/12 09:26:22;;;;;;;5.43;4.93;;;819.70;1382.40;;;;;;4989952;28;20528;-63
2023/08/12 09:28:48;;;;;;;8.38;5.70;;;819.60;1382.40;;;;;;4989683;28;20135;-64
2023/08/12 09:31:28;;;;;;;6.72;5.40;;;794.50;1382.40;;;;;;4989091;28;20041;-64
2023/08/12 09:33:58;;;;;;;6.82;5.13;;;768.90;1382.40;;;;;;4989676;28;20380;-63
2023/08/12 09:36:27;;;;;;;6.47;4.35;;;794.00;1408.00;;;;;;4990070;28;20022;-64
2023/08/12 09:38:54;;;;;;;7.65;4.32;;;794.00;1382.40;;;;;;4989698;28;20030;-64
2023/08/12 09:41:21;;;;;;;5.15;4.65;;;768.50;1408.00;;;;;;4989778;28;20026;-62
2023/08/12 09:43:47;;;;;;;5.10;4.25;;;768.20;1433.60;;;;;;4989505;28;20492;-63
2023/08/12 09:46:14;;;;;;;5.60;4.88;;;743.30;1433.60;;;;;;4989705;28;20247;-63
2023/08/12 09:48:40;;;;;;;8.45;5.30;;;743.30;1459.20;;;;;;4989501;28;20038;-63
2023/08/12 09:51:06;;;;;;;6.68;4.85;;;768.40;1433.60;;;;;;4971871;28;20041;-64
2023/08/12 09:53:33;;;;;;;5.68;4.28;;;768.30;1433.60;;;;;;4989914;28;20025;-63
2023/08/12 09:56:06;;;;;;;5.35;4.25;;;768.40;1433.60;;;;;;4989667;28;20023;-64
2023/08/12 09:58:33;;;;;;;6.68;4.97;;;768.20;1433.60;;;;;;4990073;28;20164;-63
2023/08/12 10:01:01;;;;;;;5.43;4.93;;;768.30;1433.60;;;;;;4989338;28;20018;-63
2023/08/12 10:03:28;;;;;;;7.60;5.57;;;768.60;1433.60;;;;;;4989135;28;20038;-64
2023/08/12 10:05:55;;;;;;;6.90;4.57;;;768.70;1433.60;;;;;;4989284;28;20049;-63
2023/08/12 10:08:21;;;;;;;5.70;5.20;;;768.40;1459.20;;;;;;4990292;28;20073;-63
2023/08/12 10:10:46;;;;;;;5.65;4.72;;;743.10;1484.80;;;;;;4991866;28;20018;-63
2023/08/12 10:13:12;;;;;;;6.53;5.45;;;743.00;1459.20;;;;;;4994038;28;20057;-62
2023/08/12 10:15:38;;;;;;;5.78;4.55;;;742.80;1459.20;;;;;;4994840;28;20023;-65
2023/08/12 10:18:06;;;;;;;8.27;5.18;;;768.10;1510.40;;;;;;4990323;28;20138;-63
2023/08/12 10:20:32;;;;;;;8.40;4.95;;;743.10;1408.00;;;;;;4990077;28;20029;-63
2023/08/12 10:23:00;;;;;;;6.57;4.30;;;742.70;1433.60;;;;;;4989350;28;20023;-62
2023/08/12 10:25:32;;;;;;;7.82;5.25;;;742.60;1459.20;;;;;;4989334;28;20024;-62
2023/08/12 10:27:58;;;;;;;7.20;4.93;;;717.70;1484.80;;;;;;4989364;28;20033;-63
2023/08/12 10:30:24;;;;;;;9.65;5.18;;;742.60;1536.00;;;;;;4989216;28;20018;-61
2023/08/12 10:32:50;;;;;;;8.45;5.20;;;743.10;1510.40;;;;;;4989289;28;20117;-62
2023/08/12 10:35:16;;;;;;;6.10;5.18;;;743.10;1459.20;;;;;;4988795;28;20381;-63
2023/08/12 10:37:42;;;;;;;5.45;4.95;;;742.70;1459.20;;;;;;4989694;28;20022;-63
2023/08/12 10:40:21;;;;;;;6.85;5.22;;;742.50;1484.80;;;;;;4989281;28;20022;-63
2023/08/12 10:42:48;;;;;;;4.97;4.45;;;742.40;1484.80;;;;;;4989896;28;20038;-63
2023/08/12 10:45:17;;;;;;;4.95;4.45;;;742.60;1484.80;;;;;;4992544;28;20019;-63
2023/08/12 10:47:44;;;;;;;5.32;4.22;;;717.40;1484.80;;;;;;4993231;28;20037;-63
2023/08/12 10:50:24;;;;;;;6.75;4.28;;;717.30;1484.80;;;;;;4993259;28;20113;-62
2023/08/12 10:52:54;;;;;;;5.05;4.32;;;717.20;1510.40;;;;;;4992705;28;20053;-62
2023/08/12 10:55:27;;;;;;;5.78;4.10;;;717.60;1510.40;;;;;;4992558;28;20022;-63
2023/08/12 10:57:55;;;;;;;6.45;4.55;;;742.40;1484.80;;;;;;4992812;28;20022;-63
2023/08/12 11:00:27;;;;;;;5.95;5.35;;;742.60;1510.40;;;;;;4974559;28;20054;-63
2023/08/12 11:02:57;;;;;;;8.73;4.13;;;742.50;1561.60;;;;;;4992763;28;20041;-63
2023/08/12 11:05:24;;;;;;;5.63;4.15;;;742.40;1459.20;;;;;;4993030;28;20030;-63
2023/08/12 11:08:05;;;;;;;6.65;3.70;;;742.40;1484.80;;;;;;4992707;28;20030;-63
2023/08/12 11:10:33;;;;;;;4.90;4.05;;;717.50;1433.60;;;;;;4992241;28;20672;-62
2023/08/12 11:13:00;;;;;;;6.88;4.72;;;717.40;1459.20;;;;;;4992179;28;20050;-62
2023/08/12 11:15:33;;;;;;;7.18;4.10;;;717.50;1459.20;;;;;;4991983;28;20042;-63
2023/08/12 11:18:07;;;;;;;6.30;4.10;;;717.70;1459.20;;;;;;4992456;28;20035;-62
2023/08/12 11:20:33;;;;;;;4.70;3.88;;;742.50;1484.80;;;;;;4992213;28;20026;-62
2023/08/12 11:23:00;;;;;;;4.72;4.00;;;742.60;1484.80;;;;;;4992183;28;20504;-63
2023/08/12 11:25:28;;;;;;;5.22;4.35;;;717.40;1408.00;;;;;;4991775;28;20473;-62
2023/08/12 11:27:53;;;;;;;7.22;4.03;;;717.50;1408.00;;;;;;4992288;28;20026;-63
2023/08/12 11:30:21;;;;;;;8.18;4.43;;;717.70;1484.80;;;;;;4992145;28;20053;-63
2023/08/12 11:32:52;;;;;;;5.35;4.43;;;717.20;1459.20;;;;;;4991888;28;20485;-63
2023/08/12 11:35:19;;;;;;;5.90;4.40;;;716.90;1484.80;;;;;;4991822;28;20027;-62
2023/08/12 11:37:50;;;;;;;7.47;4.47;;;692.10;1484.80;;;;;;4991624;28;20022;-62
2023/08/12 11:40:17;;;;;;;5.97;4.47;;;691.90;1510.40;;;;;;4979328;28;20026;-63
2023/08/12 11:42:45;;;;;;;7.97;4.88;;;691.80;1510.40;;;;;;4993846;28;20380;-63
2023/08/12 11:45:12;;;;;;;5.28;4.05;;;691.70;1536.00;;;;;;4995572;28;20029;-63
2023/08/12 11:47:40;;;;;;;6.00;4.07;;;691.60;1510.40;;;;;;4996147;28;20057;-63
2023/08/12 11:50:08;;;;;;;6.75;4.53;;;691.80;1510.40;;;;;;4993675;28;20061;-63
2023/08/12 11:52:35;;;;;;;5.35;4.55;;;691.90;1484.80;;;;;;4992050;28;20045;-63
2023/08/12 11:55:01;;;;;;;4.90;4.25;;;716.90;1587.20;;;;;;4992275;28;20034;-64
2023/08/12 11:57:30;;;;;;;7.20;4.22;;;717.10;1561.60;;;;;;4992796;28;20022;-63
2023/08/12 11:59:59;;;;;;;7.38;4.22;;;716.90;1510.40;;;;;;4992485;28;20029;-63
2023/08/12 12:02:26;;;;;;;4.57;3.65;;;692.10;1484.80;;;;;;4991583;28;20464;-64
2023/08/12 12:04:52;;;;;;;4.97;3.95;;;691.90;1484.80;;;;;;4991863;28;20030;-63
2023/08/12 12:07:24;;;;;;;4.82;3.80;;;691.80;1459.20;;;;;;4991632;28;20048;-63
2023/08/12 12:09:54;;;;;;;6.25;3.95;;;692.10;1484.80;;;;;;4991853;28;20057;-63
2023/08/12 12:12:24;;;;;;;5.78;3.90;;;692.10;1459.20;;;;;;4991360;28;20057;-63